Airfield :
LOGIN :

Register | Disclaimer

   EN    FR    IT 

 










Legend :    VFR   Marginal VFR   IFR   Intensive IFR   Very Intensive IFR
Visi :
Ceiling :
>= 8 km
>= 3000ft
5 to 8 km
1000 to 3000 ft
1500m to 5 km
500 to 1000 ft
800 to 1500m
200 to 500 ft
< 800m
< 200 ft
Symbols :   Thunderstorms  Fog  Heavy snow  Heavy precipitations  Wind > 20 kt
SIGMETs :     Misc.  Thunderstorms  Icing  Turbulence  Mountain Waves  Volcanic Ashes






- Airport Elevation : 124 ft
- IATA code : NHT


EGWU - RAF Northolt

CURRENT METAR :
  • 301920Z 24007KT 9999 FEW040 SCT080 16/09 Q1012 NOSIG RMK BLU BLU

EXPIRED METARs :
  • 301850Z 29001KT 9999 FEW035CB 17/10 Q1012 NOSIG RMK BLU BLU
  • 301820Z 32006KT 9999 FEW035CB SCT045 15/10 Q1012 TEMPO 7000 SHRA RMK BLU TEMPO WHT
  • 301803Z 31007KT 9999 FEW035CB SCT045 15/10 Q1012 TEMPO 7000 SHRA RMK BLU TEMPO WHT
  • 301750Z 30009KT 9999 7000N VCSH FEW035TCU BKN040 15/10 Q1012 TEMPO 9999 NSW
  • 301720Z 33012KT 9999 FEW035CB BKN040 16/09 Q1012 TEMPO 7000 SHRA RMK BLU TEMPO WHT
  • 301650Z 33009KT 9999 VCSH FEW038CB SCT040 17/11 Q1012 TEMPO 7000 SHRA

TAF AMD TAF EGWU
Valid from the 30 at 18:00 until the 01 at 12:00 UTC


301736Z 3018/0112 24010KT 9999 SCT040
TEMPO 3018/3024 7000 SHRA
PROB30
TEMPO 3018/3024 4000 +SHRA BKN024CB
PROB40
TEMPO 0102/0107 SCT008
PROB30
TEMPO 0105/0106 SCT006
PROB30
TEMPO 0107/0109 SCT020
PROB30
TEMPO 0109/0112 7000 SHRA



MET'MAP, your aeronautical weather chart ! - Copyright ORBIFLY December 2007 - Disclaimer

ORBIFLY MET'MAP TEAM :

Programming & Development : Alexandra Zaïnal
Original concept : Baudouin d'Aumeries
Technical & hardware support : Manuel Goepfert
Assistance : Marc-Olivier Méhu




SOURCES & CREDITS :

   NOAA